Time;durP1;ratioP1;P1;durP2;ratioP2;P2;SDS_P1;SDS_P2;PMS_P1;PMS_P2;Temp;Humidity;BMP_temperature;BMP_pressure;BME280_temperature;BME280_humidity;BME280_pressure;Samples;Min_cycle;Max_cycle;Signal;HPM_P1;HPM_P2
2023/10/23 00:00:51;;;;;;;;;;;;;;;16.40;59.61;99350.72;6248625;22;19907;-95
2023/10/23 00:03:16;;;;;;;;;;;;;;;16.43;59.92;99350.88;6248330;22;20352;-95
2023/10/23 00:05:41;;;;;;;;;;;;;;;16.46;59.88;99350.28;6249231;22;19908;-94
2023/10/23 00:08:07;;;;;;;;;;;;;;;16.45;60.00;99343.22;6248835;22;19946;-96
2023/10/23 00:10:32;;;;;;;;;;;;;;;16.39;60.17;99332.78;6247634;22;19965;-95
2023/10/23 00:12:58;;;;;;;;;;;;;;;16.33;60.29;99335.66;6248756;22;19965;-95
2023/10/23 00:15:23;;;;;;;;;;;;;;;16.26;60.47;99346.13;6248980;22;19908;-96
2023/10/23 00:17:48;;;;;;;;;;;;;;;16.18;60.65;99349.56;6249015;22;19950;-94
2023/10/23 00:20:14;;;;;;;;;;;;;;;16.15;60.71;99348.28;6248637;22;19907;-94
2023/10/23 00:22:39;;;;;;;;;;;;;;;16.08;60.90;99342.47;6248879;22;19908;-95
2023/10/23 00:25:05;;;;;;;;;;;;;;;16.10;60.53;99339.41;6248788;22;19908;-96
2023/10/23 00:27:30;;;;;;;;;;;;;;;16.12;60.39;99335.31;6248782;22;20353;-96
2023/10/23 00:29:55;;;;;;;;;;;;;;;16.16;60.33;99335.47;6248695;22;19914;-94
2023/10/23 00:32:21;;;;;;;;;;;;;;;16.08;60.82;99337.03;6249424;22;19916;-95
2023/10/23 00:34:46;;;;;;;;;;;;;;;16.01;61.39;99339.34;6249423;22;19961;-94
2023/10/23 00:37:11;;;;;;;;;;;;;;;15.95;61.40;99340.56;6249434;22;19952;-96
2023/10/23 00:39:37;;;;;;;;;;;;;;;15.93;61.29;99340.06;6248540;22;19990;-96
2023/10/23 00:42:02;;;;;;;;;;;;;;;15.90;61.42;99355.06;6248120;22;19908;-96
2023/10/23 00:44:28;;;;;;;;;;;;;;;15.88;61.53;99348.34;6249074;22;19986;-96
2023/10/23 00:46:54;;;;;;;;;;;;;;;15.84;61.89;99353.56;6249448;22;19907;-95
2023/10/23 00:49:19;;;;;;;;;;;;;;;15.81;62.12;99356.88;6247612;22;19973;-94
2023/10/23 00:51:44;;;;;;;;;;;;;;;15.79;62.01;99350.94;6248994;22;19916;-96
2023/10/23 00:54:10;;;;;;;;;;;;;;;15.72;62.14;99354.06;6248809;22;19914;-95
2023/10/23 00:56:35;;;;;;;;;;;;;;;15.73;62.29;99346.75;6248650;22;19915;-94
2023/10/23 00:59:00;;;;;;;;;;;;;;;15.69;62.71;99351.16;6247720;22;19908;-94
2023/10/23 01:01:26;;;;;;;;;;;;;;;15.62;62.60;99351.53;6248959;22;19915;-94
2023/10/23 01:03:51;;;;;;;;;;;;;;;15.61;62.41;99360.78;6249422;22;19914;-95
2023/10/23 01:06:17;;;;;;;;;;;;;;;15.66;62.40;99351.75;6249845;22;19965;-96
2023/10/23 01:08:42;;;;;;;;;;;;;;;15.68;62.22;99354.94;6250978;22;19907;-95
2023/10/23 01:11:07;;;;;;;;;;;;;;;15.70;62.09;99353.53;6249824;22;19965;-95
2023/10/23 01:13:33;;;;;;;;;;;;;;;15.70;62.20;99366.31;6251783;22;19907;-96
2023/10/23 01:15:58;;;;;;;;;;;;;;;15.63;62.78;99365.94;6249512;22;19908;-95
2023/10/23 01:18:24;;;;;;;;;;;;;;;15.55;62.75;99373.66;6250313;22;19907;-93
2023/10/23 01:20:49;;;;;;;;;;;;;;;15.53;62.93;99369.63;6250528;22;19908;-95
2023/10/23 01:23:14;;;;;;;;;;;;;;;15.47;63.22;99370.84;6250989;22;19914;-95
2023/10/23 01:25:40;;;;;;;;;;;;;;;15.49;63.16;99382.19;6250598;23;20230;-94
2023/10/23 01:28:05;;;;;;;;;;;;;;;15.46;63.09;99377.34;6249898;22;19923;-94
2023/10/23 01:30:31;;;;;;;;;;;;;;;15.45;63.16;99381.19;6250383;22;20334;-95
2023/10/23 01:32:56;;;;;;;;;;;;;;;15.39;63.59;99383.19;6249827;22;19955;-95
2023/10/23 01:35:22;;;;;;;;;;;;;;;15.36;63.52;99381.88;6250087;22;19915;-94
2023/10/23 01:37:47;;;;;;;;;;;;;;;15.30;63.82;99379.56;6249385;22;19907;-94
2023/10/23 01:40:12;;;;;;;;;;;;;;;15.15;63.99;99380.66;6250324;22;19907;-95
2023/10/23 01:42:38;;;;;;;;;;;;;;;15.03;64.43;99380.31;6250835;22;19907;-95
2023/10/23 01:45:03;;;;;;;;;;;;;;;15.06;63.99;99379.72;6250378;22;19911;-95
2023/10/23 01:47:29;;;;;;;;;;;;;;;15.06;63.94;99374.28;6250284;22;19908;-95
2023/10/23 01:49:54;;;;;;;;;;;;;;;15.02;64.19;99376.00;6250388;22;19915;-95
2023/10/23 01:52:19;;;;;;;;;;;;;;;14.99;64.29;99365.75;6249957;22;19916;-95
2023/10/23 01:54:45;;;;;;;;;;;;;;;14.99;64.25;99373.91;6249542;22;19915;-94
2023/10/23 01:57:10;;;;;;;;;;;;;;;14.97;64.34;99373.38;6250035;22;20318;-95
2023/10/23 01:59:36;;;;;;;;;;;;;;;14.95;64.31;99373.66;6249533;22;19939;-94
2023/10/23 02:02:02;;;;;;;;;;;;;;;14.94;64.19;99381.00;6249805;22;19907;-94
2023/10/23 02:04:27;;;;;;;;;;;;;;;14.93;64.37;99384.81;6249513;22;19908;-94
2023/10/23 02:06:53;;;;;;;;;;;;;;;14.93;64.34;99387.53;6249149;22;20391;-94
2023/10/23 02:09:18;;;;;;;;;;;;;;;14.95;64.29;99387.22;6249839;22;19990;-94
2023/10/23 02:11:44;;;;;;;;;;;;;;;14.94;64.21;99386.44;6251188;22;19935;-95
2023/10/23 02:14:10;;;;;;;;;;;;;;;14.93;64.34;99389.44;6249563;22;19908;-96
2023/10/23 02:16:35;;;;;;;;;;;;;;;14.99;64.29;99390.97;6251127;22;19908;-94
2023/10/23 02:19:00;;;;;;;;;;;;;;;15.05;64.04;99400.63;6251814;22;19914;-95
2023/10/23 02:21:26;;;;;;;;;;;;;;;15.05;64.22;99392.47;6251242;22;19912;-95
2023/10/23 02:23:51;;;;;;;;;;;;;;;15.03;64.20;99391.97;6250533;22;19961;-95
2023/10/23 02:26:17;;;;;;;;;;;;;;;15.00;64.32;99397.97;6251596;22;19918;-94
2023/10/23 02:28:42;;;;;;;;;;;;;;;15.03;64.36;99394.69;6250672;22;19927;-95
2023/10/23 02:31:07;;;;;;;;;;;;;;;15.11;63.94;99394.00;6250820;22;20226;-96
2023/10/23 02:33:33;;;;;;;;;;;;;;;15.16;63.14;99396.63;6251020;22;20390;-95
2023/10/23 02:35:58;;;;;;;;;;;;;;;15.26;62.55;99400.25;6250751;22;20400;-95
2023/10/23 02:38:23;;;;;;;;;;;;;;;15.27;63.16;99399.16;6250796;22;19914;-95
2023/10/23 02:40:52;;;;;;;;;;;;;;;15.23;63.76;99401.66;6249808;22;19908;-94
2023/10/23 02:43:18;;;;;;;;;;;;;;;15.30;63.51;99398.56;6251763;22;20227;-95
2023/10/23 02:45:44;;;;;;;;;;;;;;;15.28;63.54;99400.78;6252071;22;19907;-95
2023/10/23 02:48:09;;;;;;;;;;;;;;;15.18;63.82;99407.16;6251987;22;19943;-95
2023/10/23 02:50:36;;;;;;;;;;;;;;;15.12;63.96;99402.94;6250807;22;19912;-93
2023/10/23 02:53:01;;;;;;;;;;;;;;;15.05;64.07;99405.25;6250845;22;19908;-95
2023/10/23 02:55:27;;;;;;;;;;;;;;;15.04;63.87;99412.56;6250813;22;19918;-94
2023/10/23 02:57:52;;;;;;;;;;;;;;;15.07;63.81;99406.56;6251514;22;19970;-93
2023/10/23 03:00:18;;;;;;;;;;;;;;;15.06;63.90;99410.34;6251024;22;19994;-94
2023/10/23 03:02:44;;;;;;;;;;;;;;;14.99;64.50;99407.22;6251653;22;20377;-94
2023/10/23 03:05:10;;;;;;;;;;;;;;;14.91;64.59;99410.63;6250576;22;19907;-94
2023/10/23 03:07:35;;;;;;;;;;;;;;;14.94;64.21;99405.41;6251691;22;19934;-94
2023/10/23 03:10:00;;;;;;;;;;;;;;;14.92;64.01;99401.38;6249657;22;19908;-95
2023/10/23 03:12:26;;;;;;;;;;;;;;;14.93;64.05;99413.84;6250536;22;20388;-95
2023/10/23 03:14:52;;;;;;;;;;;;;;;14.90;64.25;99409.00;6251040;22;20377;-94
2023/10/23 03:17:20;;;;;;;;;;;;;;;14.85;64.65;99411.78;6250770;22;19922;-96
2023/10/23 03:19:46;;;;;;;;;;;;;;;14.83;64.28;99412.09;6250024;22;20322;-95
2023/10/23 03:22:11;;;;;;;;;;;;;;;14.79;64.61;99412.97;6251027;22;19943;-95
2023/10/23 03:24:37;;;;;;;;;;;;;;;14.86;64.28;99413.41;6253891;22;19910;-93
2023/10/23 03:27:04;;;;;;;;;;;;;;;14.86;64.29;99421.56;6251906;22;20009;-96
2023/10/23 03:29:29;;;;;;;;;;;;;;;14.91;64.23;99424.97;6250695;22;19907;-94
2023/10/23 03:31:55;;;;;;;;;;;;;;;14.90;64.41;99436.09;6251011;22;19965;-95
2023/10/23 03:34:20;;;;;;;;;;;;;;;14.89;64.62;99435.31;6250162;22;20334;-94
2023/10/23 03:36:45;;;;;;;;;;;;;;;14.85;64.72;99433.47;6249949;22;19987;-96
2023/10/23 03:39:11;;;;;;;;;;;;;;;14.73;64.69;99432.03;6249917;22;19912;-93
2023/10/23 03:41:37;;;;;;;;;;;;;;;14.71;64.97;99428.00;6249778;23;19911;-94
2023/10/23 03:44:03;;;;;;;;;;;;;;;14.62;65.36;99438.69;6248564;22;19914;-93
2023/10/23 03:46:29;;;;;;;;;;;;;;;14.59;65.02;99436.59;6249012;22;20299;-95
2023/10/23 03:51:57;;;;;;;;;;;;;;;14.48;65.27;99435.88;6250139;23;19979;-94
2023/10/23 03:54:23;;;;;;;;;;;;;;;14.49;65.09;99437.50;6248888;22;19907;-95
2023/10/23 03:56:48;;;;;;;;;;;;;;;14.43;65.95;99432.44;6224358;23;19907;-95
2023/10/23 03:59:13;;;;;;;;;;;;;;;14.40;65.97;99439.28;6249125;22;19943;-94
2023/10/23 04:01:39;;;;;;;;;;;;;;;14.38;65.80;99427.09;6224156;23;19908;-94
2023/10/23 04:04:04;;;;;;;;;;;;;;;14.35;65.76;99436.63;6248589;22;19907;-95
2023/10/23 04:06:32;;;;;;;;;;;;;;;14.38;65.64;99433.34;6250969;22;20388;-94
2023/10/23 04:08:58;;;;;;;;;;;;;;;14.44;65.32;99429.44;6251198;22;19911;-95
2023/10/23 04:11:25;;;;;;;;;;;;;;;14.53;65.26;99429.59;6249732;22;19912;-96
2023/10/23 04:13:50;;;;;;;;;;;;;;;14.58;65.04;99434.16;6249213;22;19915;-94
2023/10/23 04:16:15;;;;;;;;;;;;;;;14.60;64.90;99430.06;6248383;22;19986;-94
2023/10/23 04:18:41;;;;;;;;;;;;;;;14.64;65.03;99430.28;6248555;23;19914;-94
2023/10/23 04:21:07;;;;;;;;;;;;;;;14.61;65.24;99436.28;6249315;22;19911;-92
2023/10/23 04:23:37;;;;;;;;;;;;;;;14.68;65.09;99442.94;6250135;22;19935;-93
2023/10/23 04:26:04;;;;;;;;;;;;;;;14.68;65.21;99444.84;6252925;22;20309;-93
2023/10/23 04:28:32;;;;;;;;;;;;;;;14.75;64.61;99437.97;6252768;23;19919;-94
2023/10/23 04:30:58;;;;;;;;;;;;;;;14.84;64.39;99442.72;6250087;22;19919;-94
2023/10/23 04:33:23;;;;;;;;;;;;;;;14.88;64.40;99449.16;6249201;23;19908;-94
2023/10/23 04:35:52;;;;;;;;;;;;;;;14.74;65.25;99438.25;6248149;22;19912;-95
2023/10/23 04:38:17;;;;;;;;;;;;;;;14.73;65.11;99445.59;6249152;22;19990;-95
2023/10/23 04:40:44;;;;;;;;;;;;;;;14.78;64.82;99450.13;6250374;22;20327;-95
2023/10/23 04:43:12;;;;;;;;;;;;;;;14.83;64.58;99446.53;6254970;23;19908;-94
2023/10/23 04:48:43;;;;;;;;;;;;;;;14.79;64.96;99454.44;6263383;23;19915;-94
2023/10/23 04:51:31;;;;;;;;;;;;;;;14.81;65.10;99462.28;6254508;23;20002;-93
2023/10/23 04:56:49;;;;;;;;;;;;;;;14.73;65.39;99464.56;6218902;22;19920;-95
2023/10/23 04:59:15;;;;;;;;;;;;;;;14.72;65.11;99462.16;6139206;23;19913;-94
2023/10/23 05:01:44;;;;;;;;;;;;;;;14.64;65.30;99474.44;6140518;23;19916;-93
2023/10/23 05:04:10;;;;;;;;;;;;;;;14.52;65.72;99474.84;6160882;23;19909;-93
2023/10/23 05:06:36;;;;;;;;;;;;;;;14.52;65.56;99472.13;6161784;23;19928;-91
2023/10/23 05:09:04;;;;;;;;;;;;;;;14.56;65.34;99472.38;6133959;23;20258;-94
2023/10/23 05:11:36;;;;;;;;;;;;;;;14.60;65.38;99478.03;6145283;23;19912;-94
2023/10/23 05:20:26;;;;;;;;;;;;;;;14.67;64.94;99482.00;6111560;23;19919;-93
2023/10/23 05:22:52;;;;;;;;;;;;;;;14.81;64.50;99483.97;6125234;23;19912;-95
2023/10/23 05:25:19;;;;;;;;;;;;;;;14.93;64.14;99487.84;6164481;23;20353;-92
2023/10/23 05:27:45;;;;;;;;;;;;;;;15.01;64.28;99485.56;6137710;23;19991;-93
2023/10/23 05:30:10;;;;;;;;;;;;;;;15.12;63.84;99487.81;6137124;23;19920;-92
2023/10/23 05:32:35;;;;;;;;;;;;;;;15.21;63.52;99487.97;6137479;23;19915;-92
2023/10/23 05:35:03;;;;;;;;;;;;;;;15.27;63.43;99504.94;6137009;23;19915;-93
2023/10/23 05:37:32;;;;;;;;;;;;;;;15.37;63.08;99499.34;6162218;23;19999;-94
2023/10/23 05:40:00;;;;;;;;;;;;;;;15.39;63.55;99496.34;6139989;23;19912;-93
2023/10/23 05:42:26;;;;;;;;;;;;;;;15.44;63.44;99501.69;6212304;23;20420;-96
2023/10/23 05:44:51;;;;;;;;;;;;;;;15.55;63.06;99505.84;6140620;23;19916;-93
2023/10/23 05:47:18;;;;;;;;;;;;;;;15.59;62.96;99500.63;6133068;23;20287;-90
2023/10/23 05:49:44;;;;;;;;;;;;;;;15.69;62.70;99501.25;6144342;23;19912;-87
2023/10/23 05:52:09;;;;;;;;;;;;;;;15.84;62.06;99497.47;6211965;23;20411;-93
2023/10/23 05:54:35;;;;;;;;;;;;;;;15.87;62.02;99502.28;6132695;23;19916;-90
2023/10/23 05:57:00;;;;;;;;;;;;;;;15.93;62.14;99509.22;6185284;23;20331;-92
2023/10/23 05:59:26;;;;;;;;;;;;;;;16.00;61.31;99514.28;6167279;23;20005;-91
2023/10/23 06:01:52;;;;;;;;;;;;;;;16.11;61.29;99514.91;6191205;23;19908;-88
2023/10/23 06:04:17;;;;;;;;;;;;;;;16.17;60.97;99513.69;6164914;23;19920;-87
2023/10/23 06:06:44;;;;;;;;;;;;;;;16.26;61.03;99516.50;6191226;23;19962;-92
2023/10/23 06:09:09;;;;;;;;;;;;;;;16.31;60.71;99511.78;6165470;23;20302;-91
2023/10/23 06:11:34;;;;;;;;;;;;;;;16.36;60.79;99514.38;6162849;23;19912;-90
2023/10/23 06:14:00;;;;;;;;;;;;;;;16.39;60.39;99506.72;6167812;23;20310;-91
2023/10/23 06:16:28;;;;;;;;;;;;;;;16.46;59.91;99516.06;6161919;23;19919;-91
2023/10/23 06:19:09;;;;;;;;;;;;;;;16.43;59.95;99521.31;6180394;23;19908;-93
2023/10/23 06:21:35;;;;;;;;;;;;;;;16.50;59.46;99524.44;6168485;23;20356;-94
2023/10/23 06:24:03;;;;;;;;;;;;;;;16.60;59.02;99523.41;6168047;23;19912;-93
2023/10/23 06:26:29;;;;;;;;;;;;;;;16.71;58.79;99520.16;6170503;23;19908;-96
2023/10/23 06:28:57;;;;;;;;;;;;;;;16.72;58.75;99526.41;6194896;23;20231;-96
2023/10/23 06:31:23;;;;;;;;;;;;;;;16.75;59.03;99521.16;6169803;23;19936;-93
2023/10/23 06:33:55;;;;;;;;;;;;;;;16.82;58.67;99528.13;6194603;23;19908;-95
2023/10/23 06:36:21;;;;;;;;;;;;;;;16.93;58.15;99527.59;6172656;23;20246;-94
2023/10/23 06:38:51;;;;;;;;;;;;;;;17.03;57.89;99531.97;6167940;23;19908;-94
2023/10/23 06:41:19;;;;;;;;;;;;;;;17.15;57.17;99532.25;6171740;23;19915;-93
2023/10/23 06:43:46;;;;;;;;;;;;;;;17.24;56.86;99526.06;6167608;23;19912;-93
2023/10/23 06:46:12;;;;;;;;;;;;;;;17.31;56.38;99527.25;6198018;23;19969;-95
2023/10/23 06:48:56;;;;;;;;;;;;;;;17.37;56.23;99531.47;6202128;23;19946;-95
2023/10/23 06:51:40;;;;;;;;;;;;;;;17.29;58.16;99532.19;6145176;23;19916;-95
2023/10/23 07:05:59;;;;;;;;;;;;;;;17.21;57.58;99535.66;6151941;23;19909;-96
2023/10/23 07:08:27;;;;;;;;;;;;;;;17.32;57.60;99534.28;6217413;22;19911;-94
2023/10/23 07:11:23;;;;;;;;;;;;;;;;;;;;;
2023/10/23 07:13:51;;;;;;;;;;;;;;;17.46;57.70;99536.16;6280120;22;20475;-94
2023/10/23 07:16:19;;;;;;;;;;;;;;;17.55;57.63;99526.91;6257313;22;19911;-92
2023/10/23 07:18:47;;;;;;;;;;;;;;;17.61;56.86;99526.78;6235911;22;19907;-92
2023/10/23 07:21:23;;;;;;;;;;;;;;;;;;;;;
2023/10/23 07:23:49;;;;;;;;;;;;;;;17.80;57.36;99532.81;6266286;22;20370;-94
2023/10/23 07:42:30;;;;;;;;;;;;;;;18.70;52.58;99521.63;6129031;23;19913;-93
2023/10/23 07:44:56;;;;;;;;;;;;;;;18.83;52.79;99527.28;6136273;23;19940;-95
2023/10/23 07:47:35;;;;;;;;;;;;;;;;;;;;;
2023/10/23 07:50:07;;;;;;;;;;;;;;;18.95;52.31;99517.31;6268493;22;19914;-95
2023/10/23 08:31:52;;;;;;;;;;;;;;;20.92;47.33;99511.00;6283582;22;19919;-94
2023/10/23 08:40:20;;;;;;;;;;;;;;;21.30;46.93;99499.06;6295096;22;19919;-94
2023/10/23 08:50:04;;;;;;;;;;;;;;;;;;;;;
2023/10/23 09:13:39;;;;;;;;;;;;;;;22.53;43.77;99488.25;6145867;23;19924;-95
2023/10/23 09:16:46;;;;;;;;;;;;;;;;;;;;;
2023/10/23 09:19:48;;;;;;;;;;;;;;;22.77;42.21;99492.91;6035651;23;19921;-96
2023/10/23 09:22:47;;;;;;;;;;;;;;;;;;;;;
2023/10/23 09:25:41;;;;;;;;;;;;;;;22.91;41.75;99483.47;6091075;23;19909;-95
2023/10/23 10:16:04;;;;;;;;;;;;;;;24.28;37.94;99416.31;6106064;23;19913;-90
2023/10/23 10:18:32;;;;;;;;;;;;;;;24.30;38.27;99403.81;6075387;23;19909;-92
2023/10/23 10:21:19;;;;;;;;;;;;;;;24.41;38.44;99410.31;6198749;22;19907;-92
2023/10/23 10:23:45;;;;;;;;;;;;;;;24.47;37.87;99412.81;6229284;22;19907;-93
2023/10/23 10:26:20;;;;;;;;;;;;;;;24.49;37.69;99411.31;6253230;22;19907;-94
2023/10/23 10:28:51;;;;;;;;;;;;;;;24.56;37.93;99405.16;6231974;22;20305;-92
2023/10/23 10:31:17;;;;;;;;;;;;;;;24.62;37.39;99408.41;6252968;22;19923;-91
2023/10/23 10:33:47;;;;;;;;;;;;;;;24.69;37.01;99411.31;6258722;22;19950;-94
2023/10/23 10:36:15;;;;;;;;;;;;;;;24.75;37.06;99399.63;6230738;22;20033;-92
2023/10/23 10:38:40;;;;;;;;;;;;;;;24.87;36.87;99393.19;6253027;22;19913;-92
2023/10/23 10:41:28;;;;;;;;;;;;;;;;;;;;;
2023/10/23 10:43:53;;;;;;;;;;;;;;;25.04;36.64;99396.63;6257134;22;19994;-89
2023/10/23 10:46:20;;;;;;;;;;;;;;;25.10;36.03;99381.41;6253527;22;19911;-89
2023/10/23 10:48:56;;;;;;;;;;;;;;;;;;;;;
2023/10/23 10:51:22;;;;;;;;;;;;;;;25.20;35.84;99375.28;6258465;22;19951;-92
2023/10/23 10:54:06;;;;;;;;;;;;;;;;;;;;;
2023/10/23 10:56:32;;;;;;;;;;;;;;;25.29;36.12;99375.84;6259865;22;19961;-92
2023/10/23 10:59:04;;;;;;;;;;;;;;;25.33;35.52;99378.69;6255885;22;19908;-94
2023/10/23 11:01:40;;;;;;;;;;;;;;;;;;;;;
2023/10/23 11:04:08;;;;;;;;;;;;;;;25.45;35.20;99364.72;6259708;22;19938;-94
2023/10/23 11:06:37;;;;;;;;;;;;;;;25.43;35.01;99364.28;6234827;22;20010;-94
2023/10/23 11:09:12;;;;;;;;;;;;;;;25.36;34.80;99370.47;6230504;22;19911;-92
2023/10/23 11:11:44;;;;;;;;;;;;;;;25.43;35.41;99372.56;6233818;22;19911;-96
2023/10/23 11:14:09;;;;;;;;;;;;;;;25.43;34.88;99378.06;6231681;22;19963;-93
2023/10/23 11:16:35;;;;;;;;;;;;;;;25.50;35.05;99369.91;6255373;22;19907;-95
2023/10/23 11:19:00;;;;;;;;;;;;;;;25.54;34.91;99365.25;6233634;22;19922;-96
2023/10/23 11:21:27;;;;;;;;;;;;;;;25.59;34.73;99359.44;6233882;22;19907;-95
2023/10/23 11:24:00;;;;;;;;;;;;;;;25.66;34.95;99361.50;6256554;22;19957;-95
2023/10/23 11:26:35;;;;;;;;;;;;;;;25.67;34.05;99356.78;6237607;22;19907;-96
2023/10/23 11:29:03;;;;;;;;;;;;;;;25.76;33.83;99360.88;6232078;22;19907;-94
2023/10/23 11:32:00;;;;;;;;;;;;;;;25.89;33.67;99363.41;6229326;22;20010;-94
2023/10/23 11:34:27;;;;;;;;;;;;;;;25.94;33.78;99355.66;6256189;22;19968;-94
2023/10/23 11:36:58;;;;;;;;;;;;;;;26.09;33.78;99361.38;6231970;22;19914;-94
2023/10/23 11:44:57;;;;;;;;;;;;;;;26.08;33.66;99373.56;6232948;22;19965;-96
2023/10/23 11:47:45;;;;;;;;;;;;;;;26.05;33.67;99375.09;6232754;22;19907;-93
2023/10/23 11:50:21;;;;;;;;;;;;;;;;;;;;;
2023/10/23 11:53:07;;;;;;;;;;;;;;;25.92;33.66;99371.78;6259674;22;19939;-94
2023/10/23 11:55:33;;;;;;;;;;;;;;;25.90;33.45;99365.84;6257833;22;19907;-94
2023/10/23 11:58:04;;;;;;;;;;;;;;;25.89;34.11;99375.28;6230406;22;19915;-91
2023/10/23 12:00:32;;;;;;;;;;;;;;;25.88;33.72;99372.84;6231133;22;19911;-93
2023/10/23 12:05:57;;;;;;;;;;;;;;;25.89;33.61;99377.22;6262051;22;19915;-95
2023/10/23 12:08:23;;;;;;;;;;;;;;;25.93;33.38;99378.88;6237406;22;20401;-95
2023/10/23 12:11:17;;;;;;;;;;;;;;;26.03;33.26;99382.19;6235046;22;19915;-95
2023/10/23 12:13:42;;;;;;;;;;;;;;;25.96;33.40;99391.13;6263559;22;19972;-94
2023/10/23 12:16:10;;;;;;;;;;;;;;;25.94;33.49;99382.44;6230567;22;19911;-91
2023/10/23 12:18:41;;;;;;;;;;;;;;;25.88;34.07;99383.88;6231041;22;19937;-94
2023/10/23 12:21:25;;;;;;;;;;;;;;;25.86;33.49;99378.75;6257786;22;19934;-94
2023/10/23 12:23:50;;;;;;;;;;;;;;;25.84;33.53;99378.31;6228959;22;19907;-91
2023/10/23 12:26:18;;;;;;;;;;;;;;;25.83;33.47;99362.94;6254866;22;19914;-91
2023/10/23 12:31:43;;;;;;;;;;;;;;;25.73;33.57;99369.06;6271315;22;19911;-94
2023/10/23 12:37:31;;;;;;;;;;;;;;;25.74;33.50;99365.16;6288515;22;19930;-95
2023/10/23 12:40:00;;;;;;;;;;;;;;;25.73;33.86;99367.13;6258608;22;19919;-93
2023/10/23 12:42:49;;;;;;;;;;;;;;;25.68;33.42;99372.16;6233592;22;19908;-93
2023/10/23 12:45:23;;;;;;;;;;;;;;;25.47;34.54;99370.66;6234353;22;19908;-95
2023/10/23 12:48:29;;;;;;;;;;;;;;;25.44;34.46;99363.09;6259090;22;19907;-95
2023/10/23 12:51:38;;;;;;;;;;;;;;;25.40;34.61;99363.06;6196263;23;19919;-94
2023/10/23 12:54:16;;;;;;;;;;;;;;;;;;;;;
2023/10/23 13:02:48;;;;;;;;;;;;;;;25.22;35.08;99373.00;6257416;23;19911;-95
2023/10/23 13:05:54;;;;;;;;;;;;;;;25.26;34.86;99368.34;6232845;23;19918;-96
2023/10/23 13:08:48;;;;;;;;;;;;;;;;;;;;;
2023/10/23 13:20:34;;;;;;;;;;;;;;;25.41;34.37;99358.34;6160353;23;19918;-94
2023/10/23 13:23:20;;;;;;;;;;;;;;;25.47;34.76;99365.13;6163380;23;19908;-95
2023/10/23 13:25:48;;;;;;;;;;;;;;;25.40;34.35;99368.59;6138361;23;19909;-95
2023/10/23 13:28:16;;;;;;;;;;;;;;;25.46;34.90;99368.25;6121353;23;19936;-95
2023/10/23 13:30:45;;;;;;;;;;;;;;;25.46;34.64;99360.78;6143481;23;20005;-95
2023/10/23 13:33:10;;;;;;;;;;;;;;;25.48;34.72;99368.69;6139628;23;20330;-93
2023/10/23 13:35:36;;;;;;;;;;;;;;;25.48;34.60;99361.22;6141182;23;19928;-95
2023/10/23 13:38:08;;;;;;;;;;;;;;;25.54;34.46;99368.00;6161529;23;19926;-95
2023/10/23 13:40:42;;;;;;;;;;;;;;;25.44;34.82;99365.88;6224734;23;19954;-94
2023/10/23 13:43:10;;;;;;;;;;;;;;;25.42;34.97;99359.91;6227126;23;19911;-93
2023/10/23 13:45:47;;;;;;;;;;;;;;;25.40;34.99;99351.22;6199310;23;19907;-94
2023/10/23 13:48:20;;;;;;;;;;;;;;;25.40;35.22;99356.75;6234117;22;19957;-95
2023/10/23 13:50:49;;;;;;;;;;;;;;;25.43;34.89;99352.47;6269503;22;19895;-94
2023/10/23 13:53:20;;;;;;;;;;;;;;;25.44;34.73;99346.56;6287513;22;19940;-94
2023/10/23 13:55:46;;;;;;;;;;;;;;;25.46;35.07;99346.19;6265780;22;19907;-95
2023/10/23 13:58:18;;;;;;;;;;;;;;;25.43;35.17;99347.75;6265895;22;19906;-96
2023/10/23 14:01:02;;;;;;;;;;;;;;;25.29;34.84;99361.28;6294516;22;19980;-96
2023/10/23 14:03:49;;;;;;;;;;;;;;;25.30;35.14;99349.91;6262610;22;19907;-95
2023/10/23 14:06:14;;;;;;;;;;;;;;;25.29;34.81;99356.56;6285837;22;20386;-94
2023/10/23 14:09:11;;;;;;;;;;;;;;;;;;;;;
2023/10/23 14:17:22;;;;;;;;;;;;;;;24.97;35.56;99359.53;6303402;22;19907;-93
2023/10/23 14:20:01;;;;;;;;;;;;;;;24.93;35.76;99360.63;6269716;22;19913;-91
2023/10/23 14:22:30;;;;;;;;;;;;;;;24.85;35.81;99358.91;6300487;22;19907;-93
2023/10/23 14:24:55;;;;;;;;;;;;;;;24.77;35.77;99357.97;6267909;22;19914;-94
2023/10/23 14:27:21;;;;;;;;;;;;;;;24.75;36.24;99363.03;6261983;22;20376;-95
2023/10/23 14:29:46;;;;;;;;;;;;;;;24.63;36.54;99368.69;6262221;22;19942;-95
2023/10/23 14:32:18;;;;;;;;;;;;;;;24.58;36.77;99369.78;6264356;22;19955;-96
2023/10/23 14:34:43;;;;;;;;;;;;;;;24.53;37.16;99368.13;6262981;22;19959;-94
2023/10/23 14:37:08;;;;;;;;;;;;;;;24.48;36.72;99368.38;6259919;22;19918;-94
2023/10/23 14:39:34;;;;;;;;;;;;;;;24.44;37.23;99369.47;6233120;22;19913;-95
2023/10/23 14:41:59;;;;;;;;;;;;;;;24.31;37.30;99368.81;6230995;22;19911;-95
2023/10/23 14:44:25;;;;;;;;;;;;;;;24.26;37.27;99364.41;6230366;22;19911;-94
2023/10/23 14:46:50;;;;;;;;;;;;;;;24.19;37.90;99376.03;6230444;22;19930;-95
2023/10/23 14:49:21;;;;;;;;;;;;;;;24.09;37.96;99367.53;6238652;22;19947;-96
2023/10/23 14:51:46;;;;;;;;;;;;;;;24.02;38.28;99370.16;6259644;22;19923;-94
2023/10/23 14:54:18;;;;;;;;;;;;;;;23.96;38.30;99375.13;6262133;22;19939;-96
2023/10/23 15:00:06;;;;;;;;;;;;;;;23.77;39.55;99378.63;6194258;23;19909;-94
2023/10/23 15:02:34;;;;;;;;;;;;;;;23.63;40.04;99381.00;6258802;22;20289;-95
2023/10/23 15:05:15;;;;;;;;;;;;;;;23.56;39.10;99376.13;6231134;22;19908;-94
2023/10/23 15:07:40;;;;;;;;;;;;;;;23.47;40.37;99378.25;6255631;22;19907;-93
2023/10/23 15:10:11;;;;;;;;;;;;;;;23.38;40.58;99378.44;6258422;22;20013;-95
2023/10/23 15:12:37;;;;;;;;;;;;;;;23.23;41.55;99395.72;6232275;22;19918;-94
2023/10/23 15:15:05;;;;;;;;;;;;;;;23.14;41.72;99385.69;6233506;22;19950;-93
2023/10/23 15:17:36;;;;;;;;;;;;;;;23.07;41.64;99390.19;6230804;22;19915;-93
2023/10/23 15:20:01;;;;;;;;;;;;;;;22.97;41.50;99392.28;6281461;22;19907;-93
2023/10/23 15:22:29;;;;;;;;;;;;;;;22.93;41.70;99393.31;6229609;22;19994;-95
2023/10/23 15:24:55;;;;;;;;;;;;;;;22.88;42.42;99397.13;6232204;22;19942;-94
2023/10/23 15:27:20;;;;;;;;;;;;;;;22.82;41.33;99403.22;6231776;22;19907;-94
2023/10/23 15:29:45;;;;;;;;;;;;;;;22.76;41.63;99405.41;6256851;22;19908;-93
2023/10/23 15:32:11;;;;;;;;;;;;;;;22.71;41.77;99411.16;6254696;22;19911;-92
2023/10/23 15:34:36;;;;;;;;;;;;;;;22.65;41.86;99412.56;6256276;22;19907;-94
2023/10/23 15:37:04;;;;;;;;;;;;;;;22.63;41.67;99415.63;6256038;22;19915;-95
2023/10/23 15:39:29;;;;;;;;;;;;;;;22.60;41.68;99416.34;6255732;22;20385;-95
2023/10/23 15:41:55;;;;;;;;;;;;;;;22.54;41.98;99421.28;6261100;22;19907;-95
2023/10/23 15:44:20;;;;;;;;;;;;;;;22.52;41.80;99426.31;6283372;22;19913;-95
2023/10/23 15:47:10;;;;;;;;;;;;;;;22.49;42.00;99424.25;6260739;22;19911;-93
2023/10/23 15:49:35;;;;;;;;;;;;;;;22.48;41.83;99430.09;6255550;22;19907;-94
2023/10/23 15:52:00;;;;;;;;;;;;;;;22.45;42.25;99433.53;6231158;22;20265;-95
2023/10/23 15:54:25;;;;;;;;;;;;;;;22.43;41.54;99436.59;6232346;22;20227;-90
2023/10/23 15:56:51;;;;;;;;;;;;;;;22.40;42.28;99437.31;6230126;22;19941;-94
2023/10/23 15:59:16;;;;;;;;;;;;;;;22.36;42.49;99437.19;6232758;22;19908;-92
2023/10/23 16:01:49;;;;;;;;;;;;;;;22.33;41.95;99432.41;6233529;22;19965;-96
2023/10/23 16:04:15;;;;;;;;;;;;;;;22.33;42.12;99431.59;6232806;22;19914;-94
2023/10/23 16:06:40;;;;;;;;;;;;;;;22.28;42.58;99440.88;6232357;22;19912;-95
2023/10/23 16:09:05;;;;;;;;;;;;;;;22.25;42.27;99435.28;6283220;22;19986;-95
2023/10/23 16:11:31;;;;;;;;;;;;;;;22.20;42.52;99444.50;6233781;22;19934;-94
2023/10/23 16:14:08;;;;;;;;;;;;;;;22.11;43.12;99435.59;6264811;22;19907;-95
2023/10/23 16:16:33;;;;;;;;;;;;;;;22.04;41.32;99440.84;6240219;22;19930;-96
2023/10/23 16:18:59;;;;;;;;;;;;;;;21.98;42.72;99426.59;6284282;22;19982;-95
2023/10/23 16:21:24;;;;;;;;;;;;;;;21.93;43.06;99427.59;6285187;22;19908;-95
2023/10/23 16:23:50;;;;;;;;;;;;;;;21.83;43.67;99441.78;6253388;22;20345;-95
2023/10/23 16:26:15;;;;;;;;;;;;;;;21.77;44.46;99432.19;6256764;22;19979;-95
2023/10/23 16:28:40;;;;;;;;;;;;;;;21.65;44.53;99443.94;6253987;22;19914;-96
2023/10/23 16:31:08;;;;;;;;;;;;;;;21.64;44.59;99439.59;6252801;22;19918;-96
2023/10/23 16:33:33;;;;;;;;;;;;;;;21.53;45.04;99441.97;6254169;22;20190;-96
2023/10/23 16:35:58;;;;;;;;;;;;;;;21.52;45.29;99445.88;6280907;22;19907;-95